createdAt,value
2022-10-05T00:00:48.430Z,3.00
2022-10-05T00:03:15.922Z,2.65
2022-10-05T00:05:44.949Z,3.23
2022-10-05T00:08:18.127Z,3.33
2022-10-05T00:10:45.941Z,3.20
2022-10-05T00:13:21.746Z,2.90
2022-10-05T00:15:49.524Z,2.90
2022-10-05T00:18:19.116Z,3.20
2022-10-05T00:20:47.398Z,2.75
2022-10-05T00:23:35.094Z,2.85
2022-10-05T00:26:06.964Z,2.60
2022-10-05T00:28:34.611Z,3.08
2022-10-05T00:31:01.983Z,2.83
2022-10-05T00:33:29.677Z,2.80
2022-10-05T00:35:57.714Z,3.22
2022-10-05T00:38:25.189Z,3.13
2022-10-05T00:40:58.597Z,2.83
2022-10-05T00:43:44.822Z,3.40
2022-10-05T00:46:17.219Z,3.40
2022-10-05T00:49:05.173Z,3.63
2022-10-05T00:51:36.714Z,3.25
2022-10-05T00:54:19.823Z,3.90
2022-10-05T00:57:06.604Z,3.27
2022-10-05T01:00:06.883Z,2.50
2022-10-05T01:02:50.568Z,3.10
2022-10-05T01:05:41.769Z,3.30
2022-10-05T01:08:09.369Z,3.20
2022-10-05T01:10:38.940Z,3.37
2022-10-05T01:13:16.004Z,3.50
2022-10-05T01:15:48.154Z,4.38
2022-10-05T01:18:39.216Z,3.92
2022-10-05T01:21:24.788Z,2.60
2022-10-05T01:24:12.388Z,2.83
2022-10-05T01:26:56.762Z,2.85
2022-10-05T01:29:30.455Z,3.42
2022-10-05T01:32:29.394Z,4.57
2022-10-05T01:35:20.621Z,5.25
2022-10-05T01:37:48.077Z,5.70
2022-10-05T01:40:44.826Z,6.50
2022-10-05T01:43:38.043Z,5.50
2022-10-05T01:46:26.376Z,5.03
2022-10-05T01:49:08.940Z,3.65
2022-10-05T01:51:45.103Z,3.57
2022-10-05T01:54:46.509Z,3.90
2022-10-05T01:57:20.251Z,4.00
2022-10-05T02:00:03.699Z,4.15
2022-10-05T02:02:58.745Z,3.90
2022-10-05T02:05:56.878Z,3.80
2022-10-05T02:08:35.372Z,3.72
2022-10-05T02:11:06.862Z,3.90
2022-10-05T02:13:39.280Z,3.35
2022-10-05T02:16:21.586Z,3.38
2022-10-05T02:18:58.667Z,3.33
2022-10-05T02:21:26.127Z,3.78
2022-10-05T02:23:54.894Z,3.92
2022-10-05T02:26:24.645Z,4.03
2022-10-05T02:29:06.204Z,4.22
2022-10-05T02:31:41.829Z,3.60
2022-10-05T02:34:32.717Z,3.47
2022-10-05T02:37:26.187Z,3.58
2022-10-05T02:39:57.455Z,3.42
2022-10-05T02:42:45.683Z,3.25
2022-10-05T02:45:24.386Z,3.10
2022-10-05T02:47:55.736Z,2.95
2022-10-05T02:50:45.396Z,3.05
2022-10-05T02:53:27.935Z,3.05
2022-10-05T02:56:07.227Z,3.67
2022-10-05T02:58:45.464Z,2.93
2022-10-05T03:01:32.556Z,3.30
2022-10-05T03:04:12.376Z,2.88
2022-10-05T03:06:56.319Z,3.20
2022-10-05T03:09:24.320Z,2.60
2022-10-05T03:11:58.773Z,2.83
2022-10-05T03:14:30.554Z,2.72
2022-10-05T03:17:16.096Z,2.47
2022-10-05T03:19:49.547Z,2.38
2022-10-05T03:23:05.467Z,2.63
2022-10-05T03:25:44.927Z,2.83
2022-10-05T03:28:23.583Z,2.22
2022-10-05T03:31:13.103Z,2.80
2022-10-05T03:33:47.060Z,2.65
2022-10-05T03:36:41.784Z,2.50
2022-10-05T03:39:16.268Z,2.57
2022-10-05T03:41:51.781Z,2.30
2022-10-05T03:44:41.384Z,2.70
2022-10-05T03:47:19.508Z,2.78
2022-10-05T03:49:51.028Z,2.92
2022-10-05T03:52:52.744Z,2.67
2022-10-05T03:55:44.218Z,2.90
2022-10-05T03:58:38.074Z,2.65
2022-10-05T04:01:09.405Z,2.92
2022-10-05T04:03:46.094Z,3.35
2022-10-05T04:06:16.937Z,3.43
2022-10-05T04:08:52.471Z,5.72
2022-10-05T04:11:45.017Z,13.15
2022-10-05T04:14:17.012Z,11.85
2022-10-05T04:16:50.097Z,10.75
2022-10-05T04:19:38.069Z,9.67
2022-10-05T04:22:25.586Z,6.22
2022-10-05T04:25:03.809Z,5.50
2022-10-05T04:27:33.268Z,4.68
2022-10-05T04:30:11.912Z,4.47
2022-10-05T04:32:45.052Z,4.10
2022-10-05T04:35:35.026Z,4.15
2022-10-05T04:38:42.981Z,4.00
2022-10-05T04:41:29.492Z,2.97
2022-10-05T04:44:03.766Z,3.20
2022-10-05T04:46:53.057Z,3.00
2022-10-05T04:49:42.414Z,3.13
2022-10-05T04:52:23.560Z,2.78
2022-10-05T04:55:05.102Z,2.95
2022-10-05T04:57:57.869Z,2.20
2022-10-05T05:00:28.534Z,2.60
2022-10-05T05:03:31.897Z,2.55
2022-10-05T05:06:23.035Z,2.30
2022-10-05T05:09:15.640Z,2.30
2022-10-05T05:12:20.219Z,2.40
2022-10-05T05:15:13.217Z,2.53
2022-10-05T05:18:07.588Z,3.13
2022-10-05T05:21:13.490Z,2.60
2022-10-05T05:24:05.337Z,3.22
2022-10-05T05:26:43.958Z,2.83
2022-10-05T05:29:18.761Z,2.93
2022-10-05T05:31:58.230Z,3.42
2022-10-05T05:34:33.433Z,3.10
2022-10-05T05:37:07.234Z,3.03
2022-10-05T05:39:57.811Z,3.28
2022-10-05T05:42:34.918Z,3.43
2022-10-05T05:45:23.782Z,4.00
2022-10-05T05:48:02.223Z,4.32
2022-10-05T05:50:46.692Z,3.97
2022-10-05T05:53:21.814Z,3.53
2022-10-05T05:56:00.946Z,3.13
2022-10-05T05:58:55.235Z,3.90
2022-10-05T06:01:43.433Z,3.50
2022-10-05T06:04:52.869Z,3.35
2022-10-05T06:07:32.462Z,3.55
2022-10-05T06:10:31.914Z,4.38
2022-10-05T06:13:12.209Z,3.40
2022-10-05T06:15:51.390Z,3.85
2022-10-05T06:18:22.022Z,3.97
2022-10-05T06:21:02.099Z,3.35
2022-10-05T06:23:41.564Z,3.53
2022-10-05T06:26:52.767Z,3.83
2022-10-05T06:29:25.497Z,3.50
2022-10-05T06:32:10.169Z,3.90
2022-10-05T06:34:58.220Z,4.00
2022-10-05T06:37:36.844Z,3.42
2022-10-05T06:40:11.604Z,3.03
2022-10-05T06:42:45.061Z,3.20
2022-10-05T06:46:09.305Z,3.55
2022-10-05T06:49:03.465Z,2.88
2022-10-05T06:56:02.244Z,3.10
2022-10-05T06:58:49.607Z,3.58
2022-10-05T07:02:37.719Z,3.20
2022-10-05T07:05:39.840Z,3.47
2022-10-05T07:08:19.004Z,3.17
2022-10-05T07:14:54.489Z,3.65
2022-10-05T07:17:27.070Z,4.13
2022-10-05T07:20:24.015Z,3.67
2022-10-05T07:22:57.849Z,3.60
2022-10-05T07:25:37.054Z,3.70
2022-10-05T07:28:39.057Z,3.70
2022-10-05T07:31:49.123Z,3.72
2022-10-05T07:34:41.706Z,4.00
2022-10-05T07:37:57.315Z,3.78
2022-10-05T07:40:45.558Z,3.63
2022-10-05T07:44:00.545Z,3.75
2022-10-05T07:46:44.553Z,4.50
2022-10-05T07:49:23.847Z,4.30
2022-10-05T07:52:10.086Z,4.07
2022-10-05T07:55:17.041Z,3.75
2022-10-05T07:58:18.575Z,3.88
2022-10-05T08:01:00.485Z,3.20
2022-10-05T08:03:35.788Z,3.63
2022-10-05T08:06:05.671Z,3.90
2022-10-05T08:08:59.226Z,4.10
2022-10-05T08:11:49.368Z,4.20
2022-10-05T08:15:01.774Z,3.20
2022-10-05T08:17:41.310Z,3.08
2022-10-05T08:20:22.941Z,3.38
2022-10-05T08:23:20.841Z,2.83
2022-10-05T08:26:27.418Z,2.63
2022-10-05T08:29:15.588Z,2.87
2022-10-05T08:31:46.492Z,2.90
2022-10-05T08:34:30.556Z,3.60
2022-10-05T08:37:06.473Z,2.10
2022-10-05T08:39:58.227Z,2.22
2022-10-05T08:42:51.928Z,2.70
2022-10-05T08:45:48.294Z,2.97
2022-10-05T08:48:50.108Z,2.80
2022-10-05T08:51:54.728Z,2.28
2022-10-05T08:55:15.243Z,3.30
2022-10-05T08:58:04.156Z,3.30
2022-10-05T09:00:35.995Z,3.45
2022-10-05T09:03:34.450Z,3.28
2022-10-05T09:06:26.930Z,3.20
2022-10-05T09:09:23.705Z,4.10
2022-10-05T09:12:08.736Z,3.30
2022-10-05T09:14:56.609Z,3.75
2022-10-05T09:17:48.372Z,3.47
2022-10-05T09:20:49.305Z,2.90
2022-10-05T09:23:46.517Z,3.20
2022-10-05T09:27:03.162Z,3.17
2022-10-05T09:30:09.522Z,3.30
2022-10-05T09:33:31.102Z,2.97
2022-10-05T09:36:27.764Z,3.28
2022-10-05T09:39:32.398Z,3.60
2022-10-05T09:42:12.499Z,2.67
2022-10-05T09:45:02.226Z,3.20
2022-10-05T09:47:50.285Z,2.85
2022-10-05T09:50:43.493Z,2.50
2022-10-05T09:57:55.809Z,3.10
2022-10-05T10:00:47.065Z,2.47
2022-10-05T10:03:48.906Z,2.80
2022-10-05T10:06:56.723Z,2.90
2022-10-05T10:09:51.069Z,2.75
2022-10-05T10:12:35.981Z,2.83
2022-10-05T10:15:09.736Z,2.80
2022-10-05T10:18:15.990Z,2.10
2022-10-05T10:21:21.104Z,2.85
2022-10-05T10:24:11.699Z,2.53
2022-10-05T10:27:52.226Z,2.83
2022-10-05T10:31:25.373Z,2.78
2022-10-05T10:34:36.283Z,2.95
2022-10-05T10:37:42.753Z,3.05
2022-10-05T10:40:26.257Z,2.53
2022-10-05T10:52:33.012Z,2.40
2022-10-05T10:55:09.018Z,2.65
2022-10-05T11:06:59.801Z,2.95
2022-10-05T11:09:54.554Z,1.98
2022-10-05T11:13:06.123Z,2.35
2022-10-05T11:15:47.282Z,2.47
2022-10-05T11:18:29.455Z,2.23
2022-10-05T11:21:26.423Z,2.10
2022-10-05T11:24:19.442Z,2.28
2022-10-05T11:27:27.931Z,2.45
2022-10-05T11:30:19.995Z,2.55
2022-10-05T11:33:17.710Z,2.40
2022-10-05T11:36:18.321Z,2.58
2022-10-05T11:43:13.104Z,2.30
2022-10-05T11:45:46.384Z,2.13
2022-10-05T11:48:55.719Z,2.20
2022-10-05T11:52:01.629Z,2.40
2022-10-05T11:55:11.660Z,2.83
2022-10-05T11:57:59.353Z,2.67
2022-10-05T12:00:41.755Z,2.50
2022-10-05T12:03:37.870Z,2.20
2022-10-05T12:06:39.181Z,2.72
2022-10-05T12:09:39.245Z,2.80
2022-10-05T12:12:18.114Z,3.05
2022-10-05T12:15:00.561Z,3.00
2022-10-05T12:17:36.049Z,2.50
2022-10-05T12:20:31.651Z,2.65
2022-10-05T12:23:21.447Z,2.72
2022-10-05T12:26:04.019Z,2.50
2022-10-05T12:28:43.223Z,2.80
2022-10-05T12:31:17.494Z,2.40
2022-10-05T12:34:19.483Z,3.33
2022-10-05T12:37:04.503Z,2.75
2022-10-05T12:39:53.753Z,2.85
2022-10-05T12:42:28.204Z,2.42
2022-10-05T12:45:09.996Z,2.40
2022-10-05T12:47:54.117Z,2.92
2022-10-05T12:50:29.328Z,2.35
2022-10-05T12:53:06.279Z,2.50
2022-10-05T12:55:53.590Z,2.47
2022-10-05T12:58:23.481Z,3.03
2022-10-05T13:01:24.440Z,2.63
2022-10-05T13:03:57.949Z,2.88
2022-10-05T13:06:33.963Z,2.60
2022-10-05T13:09:09.121Z,2.58
2022-10-05T13:11:43.560Z,2.50
2022-10-05T13:14:11.534Z,2.70
2022-10-05T13:16:45.733Z,3.00
2022-10-05T13:19:21.428Z,2.70
2022-10-05T13:22:04.849Z,2.40
2022-10-05T13:24:59.665Z,2.50
2022-10-05T13:27:31.176Z,2.42
2022-10-05T13:30:02.535Z,2.63
2022-10-05T13:32:39.711Z,2.60
2022-10-05T13:35:25.537Z,2.80
2022-10-05T13:38:15.547Z,3.13
2022-10-05T13:41:18.981Z,2.70
2022-10-05T13:43:59.389Z,2.33
2022-10-05T13:46:37.169Z,2.40
2022-10-05T13:49:18.697Z,2.70
2022-10-05T13:51:56.308Z,3.90
2022-10-05T13:54:42.925Z,2.78
2022-10-05T13:57:30.420Z,3.38
2022-10-05T13:59:59.106Z,5.60
2022-10-05T14:02:54.467Z,5.60
2022-10-05T14:05:24.550Z,5.97
2022-10-05T14:07:56.606Z,4.13
2022-10-05T14:10:38.041Z,3.60
2022-10-05T14:13:28.541Z,3.00
2022-10-05T14:16:05.338Z,3.10
2022-10-05T14:18:34.871Z,2.60
2022-10-05T14:21:08.596Z,2.65
2022-10-05T14:23:36.781Z,2.42
2022-10-05T14:26:19.294Z,2.90
2022-10-05T14:29:03.604Z,2.75
2022-10-05T14:31:36.522Z,2.80
2022-10-05T14:34:29.233Z,2.67
2022-10-05T14:37:02.880Z,2.95
2022-10-05T14:39:34.361Z,2.42
2022-10-05T14:42:20.507Z,2.90
2022-10-05T14:45:12.481Z,2.40
2022-10-05T14:48:02.436Z,2.67
2022-10-05T14:50:31.727Z,2.65
2022-10-05T14:53:20.144Z,2.58
2022-10-05T14:56:01.383Z,2.38
2022-10-05T14:58:44.733Z,3.00
2022-10-05T15:01:18.560Z,2.35
2022-10-05T15:03:47.526Z,2.40
2022-10-05T15:06:39.500Z,2.60
2022-10-05T15:09:45.074Z,2.90
2022-10-05T15:12:14.515Z,4.70
2022-10-05T15:14:45.422Z,3.67
2022-10-05T15:17:28.372Z,2.60
2022-10-05T15:20:02.387Z,2.45
2022-10-05T15:22:54.482Z,2.20
2022-10-05T15:25:27.176Z,2.10
2022-10-05T15:28:10.530Z,2.20
2022-10-05T15:30:41.916Z,2.67
2022-10-05T15:33:22.347Z,2.95
2022-10-05T15:36:08.507Z,2.85
2022-10-05T15:38:41.458Z,2.70
2022-10-05T15:41:21.054Z,2.60
2022-10-05T15:44:09.770Z,2.72
2022-10-05T15:46:41.821Z,2.78
2022-10-05T15:49:51.705Z,2.78
2022-10-05T15:52:28.906Z,2.60
2022-10-05T15:55:18.778Z,2.50
2022-10-05T15:58:22.389Z,2.67
2022-10-05T16:01:39.320Z,3.00
2022-10-05T16:04:21.104Z,3.50
2022-10-05T16:07:39.175Z,2.70
2022-10-05T16:10:17.475Z,4.40
2022-10-05T16:13:05.141Z,2.95
2022-10-05T16:15:48.725Z,4.10
2022-10-05T16:18:21.997Z,3.70
2022-10-05T16:21:10.172Z,3.60
2022-10-05T16:24:06.380Z,4.10
2022-10-05T16:26:39.971Z,2.72
2022-10-05T16:29:11.138Z,3.03
2022-10-05T16:32:00.147Z,3.20
2022-10-05T16:34:45.249Z,2.97
2022-10-05T16:37:32.268Z,4.03
2022-10-05T16:40:19.454Z,4.13
2022-10-05T16:43:13.299Z,4.65
2022-10-05T16:45:53.462Z,5.20
2022-10-05T16:48:43.734Z,5.97
2022-10-05T16:51:27.087Z,6.43
2022-10-05T16:54:13.494Z,5.28
2022-10-05T16:56:43.752Z,5.10
2022-10-05T16:59:54.664Z,5.15
2022-10-05T17:02:35.213Z,4.80
2022-10-05T17:05:21.584Z,5.13
2022-10-05T17:08:05.924Z,5.00
2022-10-05T17:10:46.894Z,4.57
2022-10-05T17:13:32.685Z,4.78
2022-10-05T17:16:22.994Z,4.20
2022-10-05T17:19:12.361Z,4.20
2022-10-05T17:21:45.732Z,5.18
2022-10-05T17:24:34.113Z,4.63
2022-10-05T17:27:16.054Z,4.75
2022-10-05T17:29:54.315Z,4.80
2022-10-05T17:32:22.017Z,4.80
2022-10-05T17:35:01.860Z,5.15
2022-10-05T17:38:05.785Z,5.35
2022-10-05T17:40:35.569Z,5.18
2022-10-05T17:43:15.711Z,5.30
2022-10-05T17:45:43.736Z,5.47
2022-10-05T17:48:14.496Z,6.45
2022-10-05T17:51:04.968Z,5.90
2022-10-05T17:54:04.016Z,5.72
2022-10-05T17:56:47.390Z,6.67
2022-10-05T17:59:46.531Z,6.50
2022-10-05T18:02:20.143Z,8.75
2022-10-05T18:05:12.648Z,8.35
2022-10-05T18:07:40.954Z,8.75
2022-10-05T18:10:17.686Z,7.63
2022-10-05T18:13:29.996Z,6.65
2022-10-05T18:15:57.529Z,6.30
2022-10-05T18:18:43.224Z,5.65
2022-10-05T18:21:13.799Z,5.40
2022-10-05T18:23:59.544Z,5.23
2022-10-05T18:26:33.638Z,5.10
2022-10-05T18:29:53.182Z,5.50
2022-10-05T18:32:56.314Z,5.32
2022-10-05T18:35:44.326Z,5.38
2022-10-05T18:38:24.183Z,5.60
2022-10-05T18:41:21.439Z,5.30
2022-10-05T18:44:07.808Z,5.15
2022-10-05T18:46:38.550Z,5.28
2022-10-05T18:49:25.401Z,5.90
2022-10-05T18:52:01.348Z,6.50
2022-10-05T18:54:54.963Z,6.72
2022-10-05T18:57:44.030Z,7.68
2022-10-05T19:00:14.907Z,8.23
2022-10-05T19:02:58.911Z,7.72
2022-10-05T19:05:49.658Z,7.17
2022-10-05T19:08:28.358Z,6.75
2022-10-05T19:11:23.310Z,7.88
2022-10-05T19:14:12.201Z,7.40
2022-10-05T19:17:08.265Z,7.30
2022-10-05T19:19:58.622Z,7.50
2022-10-05T19:22:47.971Z,8.07
2022-10-05T19:25:27.521Z,8.52
2022-10-05T19:28:17.504Z,8.90
2022-10-05T19:30:56.200Z,7.32
2022-10-05T19:33:37.407Z,8.37
2022-10-05T19:36:21.994Z,7.55
2022-10-05T19:39:18.007Z,7.30
2022-10-05T19:42:24.809Z,10.00
2022-10-05T19:44:58.624Z,8.85
2022-10-05T19:47:41.464Z,8.30
2022-10-05T19:50:24.162Z,8.68
2022-10-05T19:52:57.676Z,8.15
2022-10-05T19:55:26.490Z,9.05
2022-10-05T19:58:00.771Z,10.15
2022-10-05T20:00:30.676Z,9.80
2022-10-05T20:03:23.610Z,8.27
2022-10-05T20:05:53.383Z,8.70
2022-10-05T20:08:21.854Z,8.23
2022-10-05T20:11:06.379Z,8.73
2022-10-05T20:13:35.499Z,7.77
2022-10-05T20:16:34.329Z,7.72
2022-10-05T20:19:24.713Z,7.57
2022-10-05T20:21:53.807Z,7.10
2022-10-05T20:24:28.107Z,7.28
2022-10-05T20:27:05.730Z,7.20
2022-10-05T20:29:35.593Z,7.90
2022-10-05T20:32:12.420Z,7.60
2022-10-05T20:34:47.238Z,7.00
2022-10-05T20:37:16.427Z,7.43
2022-10-05T20:39:44.259Z,7.23
2022-10-05T20:42:12.043Z,6.70
2022-10-05T20:44:39.436Z,6.85
2022-10-05T20:47:09.352Z,6.07
2022-10-05T20:49:38.751Z,5.90
2022-10-05T20:52:07.480Z,5.50
2022-10-05T20:54:35.436Z,6.40
2022-10-05T20:57:05.987Z,6.15
2022-10-05T20:59:33.626Z,6.43
2022-10-05T21:02:01.783Z,6.10
2022-10-05T21:04:41.505Z,5.93
2022-10-05T21:07:09.959Z,6.13
2022-10-05T21:09:39.604Z,5.85
2022-10-05T21:12:07.141Z,5.78
2022-10-05T21:14:36.455Z,6.13
2022-10-05T21:17:07.512Z,6.80
2022-10-05T21:19:39.555Z,6.47
2022-10-05T21:22:07.994Z,5.75
2022-10-05T21:24:39.355Z,5.05
2022-10-05T21:27:07.175Z,5.07
2022-10-05T21:29:35.590Z,5.40
2022-10-05T21:32:03.631Z,5.68
2022-10-05T21:34:31.339Z,4.70
2022-10-05T21:36:58.945Z,5.13
2022-10-05T21:39:27.047Z,5.72
2022-10-05T21:41:54.580Z,5.50
2022-10-05T21:44:22.097Z,5.20
2022-10-05T21:46:49.546Z,5.55
2022-10-05T21:49:19.629Z,5.20
2022-10-05T21:51:48.038Z,4.57
2022-10-05T21:54:17.009Z,5.20
2022-10-05T21:56:46.236Z,4.30
2022-10-05T21:59:14.846Z,4.78
2022-10-05T22:01:42.494Z,4.35
2022-10-05T22:04:09.947Z,4.35
2022-10-05T22:06:37.368Z,4.50
2022-10-05T22:09:05.042Z,6.25
2022-10-05T22:11:32.794Z,5.07
2022-10-05T22:14:02.985Z,5.05
2022-10-05T22:16:33.208Z,4.55
2022-10-05T22:19:04.924Z,4.60
2022-10-05T22:21:38.101Z,4.45
2022-10-05T22:24:06.287Z,5.30
2022-10-05T22:26:34.937Z,4.30
2022-10-05T22:29:02.617Z,3.80
2022-10-05T22:31:30.466Z,3.80
2022-10-05T22:33:58.078Z,3.67
2022-10-05T22:36:25.466Z,3.28
2022-10-05T22:38:53.099Z,3.47
2022-10-05T22:41:20.878Z,3.88
2022-10-05T22:43:50.450Z,4.07
2022-10-05T22:46:18.266Z,3.83
2022-10-05T22:48:46.076Z,3.95
2022-10-05T22:51:13.789Z,4.22
2022-10-05T22:53:41.260Z,6.55
2022-10-05T22:56:10.494Z,6.20
2022-10-05T22:58:38.031Z,6.20
2022-10-05T23:01:07.407Z,5.78
2022-10-05T23:03:35.289Z,5.00
2022-10-05T23:06:04.753Z,4.90
2022-10-05T23:08:32.935Z,4.00
2022-10-05T23:11:10.770Z,3.70
2022-10-05T23:13:38.807Z,3.88
2022-10-05T23:16:14.028Z,4.00
2022-10-05T23:18:41.963Z,3.92
2022-10-05T23:21:09.934Z,3.93
2022-10-05T23:23:40.654Z,3.97
2022-10-05T23:26:09.034Z,4.60
2022-10-05T23:28:36.852Z,4.50
2022-10-05T23:31:05.965Z,4.00
2022-10-05T23:33:34.076Z,4.13
2022-10-05T23:36:18.594Z,4.10
2022-10-05T23:38:46.193Z,4.00
2022-10-05T23:41:13.713Z,4.22
2022-10-05T23:43:41.461Z,3.85
2022-10-05T23:46:09.099Z,4.33
2022-10-05T23:48:40.068Z,4.97
2022-10-05T23:51:08.795Z,4.43
2022-10-05T23:53:36.303Z,4.80
2022-10-05T23:56:03.861Z,4.00
2022-10-05T23:58:31.553Z,3.90
